Time;durP1;ratioP1;P1;durP2;ratioP2;P2;SDS_P1;SDS_P2;PMS_P1;PMS_P2;Temp;Humidity;BMP_temperature;BMP_pressure;BME280_temperature;BME280_humidity;BME280_pressure;Samples;Min_cycle;Max_cycle;Signal;HPM_P1;HPM_P2
2022/04/10 00:00:50;;;;;;;14.10;1.95;;;3.90;99.90;;;;;;4972478;28;20047;-72
2022/04/10 00:03:15;;;;;;;10.90;2.40;;;4.50;99.90;;;;;;4972244;28;20631;-71
2022/04/10 00:05:41;;;;;;;10.10;1.80;;;4.30;99.90;;;;;;4956064;28;20051;-72
2022/04/10 00:08:07;;;;;;;10.32;2.20;;;3.80;99.90;;;;;;4971830;28;20130;-71
2022/04/10 00:10:33;;;;;;;9.85;2.20;;;3.80;99.90;;;;;;4972977;28;20047;-71
2022/04/10 00:12:59;;;;;;;16.63;2.65;;;4.30;99.90;;;;;;4972817;28;20055;-71
2022/04/10 00:15:24;;;;;;;18.90;2.25;;;4.10;99.90;;;;;;4955216;28;20127;-72
2022/04/10 00:17:50;;;;;;;16.48;2.80;;;3.70;99.90;;;;;;4971694;28;20047;-71
2022/04/10 00:20:15;;;;;;;9.40;2.28;;;3.70;99.90;;;;;;4955904;28;20042;-71
2022/04/10 00:22:43;;;;;;;15.43;2.95;;;3.90;99.90;;;;;;4956219;28;20518;-71
2022/04/10 00:25:14;;;;;;;12.05;2.55;;;3.70;99.90;;;;;;4971733;28;20211;-71
2022/04/10 00:27:41;;;;;;;18.40;2.58;;;3.50;99.90;;;;;;4971674;28;20051;-71
2022/04/10 00:30:11;;;;;;;12.95;2.38;;;3.60;99.90;;;;;;4971980;28;20122;-71
2022/04/10 00:32:37;;;;;;;10.80;2.10;;;3.50;99.90;;;;;;4971895;28;20167;-71
2022/04/10 00:35:08;;;;;;;16.50;3.53;;;3.70;99.90;;;;;;4971381;28;20051;-71
2022/04/10 00:37:35;;;;;;;12.48;1.90;;;3.50;99.90;;;;;;4971823;28;20090;-71
2022/04/10 00:40:01;;;;;;;9.77;1.88;;;3.50;99.90;;;;;;4971682;28;20046;-71
2022/04/10 00:42:31;;;;;;;8.93;1.85;;;3.50;99.90;;;;;;4971975;28;20475;-71
2022/04/10 00:44:57;;;;;;;13.05;2.75;;;3.50;99.90;;;;;;4971603;28;20392;-71
2022/04/10 00:47:23;;;;;;;16.33;2.72;;;3.60;99.90;;;;;;4971392;28;20053;-71
2022/04/10 00:49:49;;;;;;;10.07;3.08;;;3.90;99.90;;;;;;4955271;28;20062;-72
2022/04/10 00:52:15;;;;;;;12.43;2.17;;;3.60;99.90;;;;;;4971575;28;20066;-71
2022/04/10 00:54:41;;;;;;;12.77;1.88;;;3.50;99.90;;;;;;4970738;28;20046;-72
2022/04/10 00:57:06;;;;;;;10.70;2.40;;;3.30;99.90;;;;;;4971787;28;20050;-72
2022/04/10 00:59:32;;;;;;;11.90;2.22;;;3.30;99.90;;;;;;4971401;28;20049;-71
2022/04/10 01:01:58;;;;;;;16.98;2.45;;;3.80;99.90;;;;;;4972437;28;20059;-71
2022/04/10 01:04:25;;;;;;;18.63;2.20;;;3.40;99.90;;;;;;4971699;28;20113;-71
2022/04/10 01:06:52;;;;;;;11.25;2.30;;;3.30;99.90;;;;;;4971249;28;20081;-72
2022/04/10 01:09:17;;;;;;;13.63;2.17;;;3.20;99.90;;;;;;4971222;28;20094;-71
2022/04/10 01:11:43;;;;;;;8.30;1.60;;;3.20;99.90;;;;;;4972114;28;20043;-71
2022/04/10 01:14:09;;;;;;;8.77;1.90;;;3.30;99.90;;;;;;4970990;28;20051;-71
2022/04/10 01:16:36;;;;;;;12.68;2.40;;;3.20;99.90;;;;;;4971676;28;20109;-71
2022/04/10 01:19:04;;;;;;;10.05;2.05;;;3.20;99.90;;;;;;4963131;28;20069;-71
2022/04/10 01:21:38;;;;;;;11.82;1.80;;;3.10;99.90;;;;;;4975159;28;20408;-71
2022/04/10 01:24:05;;;;;;;12.48;2.20;;;3.00;99.90;;;;;;4987040;28;20113;-71
2022/04/10 01:26:31;;;;;;;10.98;2.03;;;2.80;99.90;;;;;;4955451;28;20055;-71
2022/04/10 01:29:01;;;;;;;12.82;2.22;;;2.80;99.90;;;;;;4968001;28;20129;-70
2022/04/10 01:31:29;;;;;;;17.50;2.20;;;2.80;99.90;;;;;;4959232;28;20074;-71
2022/04/10 01:33:57;;;;;;;17.42;2.72;;;2.70;99.90;;;;;;4975276;28;20456;-71
2022/04/10 01:36:24;;;;;;;13.63;2.17;;;2.70;99.90;;;;;;4974826;28;20507;-72
2022/04/10 01:38:54;;;;;;;12.82;2.20;;;2.90;99.90;;;;;;4975095;28;20053;-71
2022/04/10 01:41:20;;;;;;;16.08;2.47;;;3.20;99.90;;;;;;4974920;28;20082;-72
2022/04/10 01:43:47;;;;;;;14.88;2.25;;;2.90;99.90;;;;;;4974320;28;20061;-71
2022/04/10 01:46:14;;;;;;;12.82;2.13;;;2.90;99.90;;;;;;4974507;28;20119;-71
2022/04/10 01:48:40;;;;;;;13.35;2.50;;;3.00;99.90;;;;;;4975018;28;20514;-71
2022/04/10 01:51:06;;;;;;;14.75;2.42;;;3.00;99.90;;;;;;4974745;28;20047;-71
2022/04/10 01:53:33;;;;;;;17.02;2.70;;;3.00;99.90;;;;;;4971252;28;20051;-70
2022/04/10 01:55:58;;;;;;;10.70;2.53;;;2.90;99.90;;;;;;4972758;28;20047;-71
2022/04/10 01:58:24;;;;;;;9.10;1.83;;;3.20;99.90;;;;;;4974770;28;20046;-72
2022/04/10 02:00:50;;;;;;;13.82;2.85;;;3.60;99.90;;;;;;4974671;28;21028;-70
2022/04/10 02:03:15;;;;;;;9.10;1.67;;;2.80;99.90;;;;;;4974607;28;20051;-71
2022/04/10 02:05:41;;;;;;;15.98;2.58;;;2.90;99.90;;;;;;4974233;28;20047;-71
2022/04/10 02:08:07;;;;;;;12.65;1.80;;;3.40;99.90;;;;;;4974360;28;20135;-70
2022/04/10 02:10:33;;;;;;;12.25;2.15;;;2.80;99.90;;;;;;4974335;28;20077;-70
2022/04/10 02:12:59;;;;;;;11.75;1.90;;;3.00;99.90;;;;;;4974467;28;20101;-71
2022/04/10 02:15:25;;;;;;;8.18;1.60;;;3.00;99.90;;;;;;4973967;28;20050;-72
2022/04/10 02:17:51;;;;;;;14.00;2.13;;;3.30;99.90;;;;;;4974985;28;20051;-71
2022/04/10 02:20:17;;;;;;;7.82;2.40;;;3.60;99.90;;;;;;4974287;28;20427;-71
2022/04/10 02:22:43;;;;;;;14.05;2.33;;;3.00;99.90;;;;;;4957638;28;20061;-71
2022/04/10 02:25:09;;;;;;;21.45;3.15;;;3.50;99.90;;;;;;4973761;28;20095;-71
2022/04/10 02:27:35;;;;;;;14.85;2.78;;;3.30;99.90;;;;;;4974322;28;20423;-71
2022/04/10 02:30:00;;;;;;;7.55;2.00;;;3.00;99.90;;;;;;4973958;28;20043;-71
2022/04/10 02:32:27;;;;;;;12.15;2.22;;;3.70;99.90;;;;;;4974347;28;20109;-72
2022/04/10 02:34:52;;;;;;;11.23;1.85;;;3.50;99.90;;;;;;4972982;28;20047;-71
2022/04/10 02:37:18;;;;;;;10.05;2.17;;;3.00;99.90;;;;;;4974433;28;20063;-71
2022/04/10 02:39:44;;;;;;;17.33;3.90;;;3.00;99.90;;;;;;4957163;28;20162;-71
2022/04/10 02:42:10;;;;;;;17.75;2.38;;;3.70;99.90;;;;;;4973849;28;20173;-71
2022/04/10 02:44:35;;;;;;;16.45;2.33;;;3.70;99.90;;;;;;4970104;28;20051;-71
2022/04/10 02:47:01;;;;;;;11.30;2.88;;;3.00;99.90;;;;;;4970690;28;20051;-70
2022/04/10 02:49:26;;;;;;;12.15;1.92;;;3.40;99.90;;;;;;4973539;28;20043;-70
2022/04/10 02:51:53;;;;;;;9.10;2.20;;;3.10;99.90;;;;;;4973384;28;20423;-71
2022/04/10 02:54:19;;;;;;;17.50;2.50;;;3.20;99.90;;;;;;4956862;28;20088;-71
2022/04/10 02:56:45;;;;;;;8.48;1.60;;;3.20;99.90;;;;;;4973990;28;20093;-71
2022/04/10 02:59:10;;;;;;;9.02;2.30;;;3.60;99.90;;;;;;4973452;28;20058;-71
2022/04/10 03:01:36;;;;;;;13.32;2.50;;;3.40;99.90;;;;;;4973723;28;20128;-71
2022/04/10 03:04:02;;;;;;;11.93;2.55;;;3.60;99.90;;;;;;4973132;28;20046;-71
2022/04/10 03:06:27;;;;;;;11.10;2.13;;;3.50;99.90;;;;;;4974780;28;20376;-71
2022/04/10 03:08:53;;;;;;;9.50;1.90;;;3.50;99.90;;;;;;4974405;28;20380;-71
2022/04/10 03:11:19;;;;;;;11.30;2.58;;;3.50;99.90;;;;;;4973723;28;20074;-71
2022/04/10 03:13:45;;;;;;;9.82;2.35;;;3.50;99.90;;;;;;4956540;28;20377;-72
2022/04/10 03:16:11;;;;;;;14.80;2.35;;;3.40;99.90;;;;;;4941100;28;20133;-71
2022/04/10 03:18:37;;;;;;;15.93;3.05;;;3.30;99.90;;;;;;4972922;28;20117;-71
2022/04/10 03:21:04;;;;;;;12.43;2.08;;;3.90;99.90;;;;;;4973517;28;20393;-71
2022/04/10 03:23:29;;;;;;;13.10;2.13;;;3.10;99.90;;;;;;4972928;28;21845;-72
2022/04/10 03:25:55;;;;;;;13.35;2.53;;;3.10;99.90;;;;;;4974051;28;20058;-71
2022/04/10 03:28:21;;;;;;;12.27;2.35;;;3.30;99.90;;;;;;4972557;28;20121;-71
2022/04/10 03:30:47;;;;;;;10.98;2.35;;;3.00;99.90;;;;;;4973476;28;20129;-71
2022/04/10 03:33:13;;;;;;;12.15;2.00;;;3.10;99.90;;;;;;4973777;28;20460;-71
2022/04/10 03:35:38;;;;;;;12.50;2.28;;;3.20;99.90;;;;;;4972478;28;20491;-71
2022/04/10 03:38:05;;;;;;;13.63;2.28;;;3.90;99.90;;;;;;4972617;28;20098;-71
2022/04/10 03:40:31;;;;;;;21.23;3.05;;;3.10;99.90;;;;;;4972924;28;20055;-71
2022/04/10 03:42:56;;;;;;;14.07;2.90;;;3.10;99.90;;;;;;4972912;28;20053;-70
2022/04/10 03:45:22;;;;;;;12.18;2.38;;;3.70;99.90;;;;;;4956362;28;20046;-70
2022/04/10 03:47:48;;;;;;;12.02;2.50;;;3.10;99.90;;;;;;4940281;28;20487;-70
2022/04/10 03:50:14;;;;;;;24.15;2.67;;;3.10;99.90;;;;;;4972515;28;20051;-70
2022/04/10 03:52:40;;;;;;;14.00;2.40;;;3.00;99.90;;;;;;4972286;28;20058;-71
2022/04/10 03:55:06;;;;;;;16.00;2.22;;;3.50;99.90;;;;;;4972218;28;20133;-71
2022/04/10 03:57:32;;;;;;;13.90;2.88;;;3.10;99.90;;;;;;4972359;28;20050;-71
2022/04/10 03:59:57;;;;;;;9.18;2.00;;;3.20;99.90;;;;;;4972737;28;20058;-71
2022/04/10 04:02:23;;;;;;;9.65;1.83;;;3.50;99.90;;;;;;4972127;28;20046;-71
2022/04/10 04:04:52;;;;;;;11.80;2.30;;;3.20;99.90;;;;;;4971856;28;20049;-72
2022/04/10 04:07:18;;;;;;;9.68;2.33;;;3.20;99.90;;;;;;4971981;28;20523;-71
2022/04/10 04:09:44;;;;;;;16.75;2.40;;;3.20;99.90;;;;;;4956410;28;20088;-71
2022/04/10 04:12:10;;;;;;;11.80;2.65;;;3.10;99.90;;;;;;4972125;28;20109;-71
2022/04/10 04:14:36;;;;;;;14.85;2.22;;;3.10;99.90;;;;;;4971629;28;20129;-72
2022/04/10 04:17:03;;;;;;;8.55;1.88;;;3.10;99.90;;;;;;4956333;28;20057;-71
2022/04/10 04:19:28;;;;;;;11.20;2.20;;;3.00;99.90;;;;;;4972105;28;20043;-72
2022/04/10 04:21:54;;;;;;;8.48;1.80;;;3.00;99.90;;;;;;4972351;28;20132;-72
2022/04/10 04:24:20;;;;;;;7.90;2.05;;;3.00;99.90;;;;;;4972135;28;20046;-71
2022/04/10 04:26:46;;;;;;;7.68;2.00;;;3.30;99.90;;;;;;4971908;28;20599;-70
2022/04/10 04:29:12;;;;;;;12.20;2.03;;;2.90;99.90;;;;;;4972282;28;20562;-72
2022/04/10 04:31:38;;;;;;;13.30;2.50;;;2.90;99.90;;;;;;4971659;28;20054;-71
2022/04/10 04:34:03;;;;;;;11.93;2.20;;;2.90;99.90;;;;;;4955632;28;20055;-72
2022/04/10 04:36:31;;;;;;;11.60;2.17;;;3.50;99.90;;;;;;4972301;28;20086;-71
2022/04/10 04:38:57;;;;;;;11.70;2.58;;;3.10;99.90;;;;;;4955697;28;20061;-72
2022/04/10 04:41:23;;;;;;;6.55;1.17;;;3.20;99.90;;;;;;4955976;28;20043;-72
2022/04/10 04:43:49;;;;;;;6.18;1.50;;;3.40;99.90;;;;;;4955232;28;20054;-72
2022/04/10 04:46:15;;;;;;;12.50;1.70;;;3.40;99.90;;;;;;4971491;28;20055;-71
2022/04/10 04:48:41;;;;;;;9.40;1.60;;;3.70;99.90;;;;;;4971749;28;20381;-71
2022/04/10 04:51:06;;;;;;;9.55;1.67;;;3.50;99.90;;;;;;4971829;28;20073;-71
2022/04/10 04:53:32;;;;;;;10.90;2.22;;;3.50;99.90;;;;;;4971172;28;20050;-71
2022/04/10 04:55:58;;;;;;;6.15;1.83;;;3.50;99.90;;;;;;4971124;28;20055;-71
2022/04/10 04:58:23;;;;;;;10.00;1.73;;;3.40;99.90;;;;;;4955669;28;20523;-72
2022/04/10 05:00:49;;;;;;;8.63;1.40;;;3.40;99.90;;;;;;4972019;28;20055;-71
2022/04/10 05:03:16;;;;;;;11.32;1.77;;;3.30;99.90;;;;;;4971266;28;20093;-71
2022/04/10 05:05:42;;;;;;;10.15;2.10;;;3.40;99.90;;;;;;4971174;28;20047;-71
2022/04/10 05:08:07;;;;;;;10.25;2.30;;;3.10;99.90;;;;;;4970902;28;20093;-71
2022/04/10 05:10:33;;;;;;;7.35;1.92;;;3.50;99.90;;;;;;4971772;28;20102;-73
2022/04/10 05:12:59;;;;;;;10.63;1.98;;;3.20;99.90;;;;;;4971996;28;20129;-71
2022/04/10 05:15:24;;;;;;;8.32;1.50;;;3.00;99.90;;;;;;4971174;28;20523;-72
2022/04/10 05:17:51;;;;;;;6.68;1.45;;;3.00;99.90;;;;;;4955777;28;20077;-71
2022/04/10 05:20:17;;;;;;;7.75;1.60;;;2.90;99.90;;;;;;4970383;28;20055;-71
2022/04/10 05:22:43;;;;;;;7.05;1.67;;;3.00;99.90;;;;;;4971636;28;20051;-71
2022/04/10 05:25:09;;;;;;;10.32;2.58;;;2.90;99.90;;;;;;4955320;28;20078;-71
2022/04/10 05:27:35;;;;;;;7.60;1.95;;;2.90;99.90;;;;;;4955364;28;20566;-71
2022/04/10 05:30:01;;;;;;;5.38;1.52;;;2.80;99.90;;;;;;4971442;28;20083;-71
2022/04/10 05:32:27;;;;;;;5.25;1.40;;;2.80;99.90;;;;;;4955369;28;20057;-73
2022/04/10 05:34:53;;;;;;;7.78;1.67;;;3.40;99.90;;;;;;4971543;28;20055;-72
2022/04/10 05:37:18;;;;;;;9.98;1.50;;;2.80;99.90;;;;;;4972181;28;20047;-71
2022/04/10 05:39:44;;;;;;;5.63;1.40;;;2.80;99.90;;;;;;4971145;28;20039;-71
2022/04/10 05:42:10;;;;;;;8.73;1.75;;;2.90;99.90;;;;;;4970988;28;20074;-71
2022/04/10 05:44:35;;;;;;;5.63;1.80;;;2.90;99.90;;;;;;4971018;28;20051;-72
2022/04/10 05:47:02;;;;;;;6.60;1.70;;;3.00;99.90;;;;;;4955487;28;20054;-72
2022/04/10 05:49:28;;;;;;;5.88;1.55;;;3.20;99.90;;;;;;4971387;28;20051;-71
2022/04/10 05:51:54;;;;;;;8.60;1.50;;;4.20;99.90;;;;;;4971217;28;20102;-72
2022/04/10 05:54:20;;;;;;;9.65;2.33;;;3.50;99.90;;;;;;4970982;28;20089;-71
2022/04/10 05:56:45;;;;;;;5.25;1.30;;;3.60;99.90;;;;;;4971507;28;20138;-72
2022/04/10 05:59:11;;;;;;;5.72;1.10;;;3.80;99.90;;;;;;4971480;28;20055;-72
2022/04/10 06:01:37;;;;;;;5.35;1.30;;;3.90;99.90;;;;;;4971295;28;20047;-72
2022/04/10 06:04:02;;;;;;;8.63;1.40;;;4.10;99.90;;;;;;4970593;28;20131;-72
2022/04/10 06:06:28;;;;;;;6.07;1.42;;;4.10;99.90;;;;;;4971316;28;20081;-73
2022/04/10 06:08:54;;;;;;;4.03;2.00;;;4.20;99.90;;;;;;4971245;28;20059;-72
2022/04/10 06:11:19;;;;;;;7.07;2.03;;;4.90;99.90;;;;;;4971539;28;20114;-70
2022/04/10 06:13:45;;;;;;;6.32;1.40;;;4.40;99.90;;;;;;4971089;28;20054;-70
2022/04/10 06:16:11;;;;;;;9.38;1.67;;;4.70;99.90;;;;;;4974665;28;20046;-70
2022/04/10 06:18:36;;;;;;;6.40;1.52;;;4.50;99.90;;;;;;4974167;28;20054;-71
2022/04/10 06:21:02;;;;;;;6.05;1.80;;;4.50;99.90;;;;;;4974231;28;20121;-71
2022/04/10 06:23:28;;;;;;;4.45;1.33;;;4.60;99.90;;;;;;4974335;28;20427;-71
2022/04/10 06:25:54;;;;;;;9.27;1.63;;;4.40;99.90;;;;;;4974138;28;20082;-71
2022/04/10 06:28:19;;;;;;;7.70;1.13;;;4.50;99.90;;;;;;4958375;28;20097;-70
2022/04/10 06:30:45;;;;;;;12.30;1.92;;;4.60;99.90;;;;;;4974415;28;20384;-69
2022/04/10 06:33:14;;;;;;;9.57;1.63;;;4.90;99.90;;;;;;4941553;28;20116;-71
2022/04/10 06:35:41;;;;;;;6.55;1.60;;;4.60;99.90;;;;;;4973965;28;20097;-70
2022/04/10 06:38:07;;;;;;;5.10;1.55;;;5.20;99.90;;;;;;4973984;28;20164;-69
2022/04/10 06:40:32;;;;;;;10.57;1.33;;;5.50;99.90;;;;;;4973303;28;20432;-70
2022/04/10 06:42:58;;;;;;;5.97;1.70;;;5.00;99.90;;;;;;4973921;28;20073;-70
2022/04/10 06:45:24;;;;;;;10.43;1.80;;;5.10;99.90;;;;;;4957200;28;20193;-71
2022/04/10 06:47:49;;;;;;;7.72;1.52;;;5.00;99.90;;;;;;4974644;28;20410;-73
2022/04/10 06:50:15;;;;;;;8.60;1.55;;;4.80;99.90;;;;;;4974400;28;20062;-72
2022/04/10 06:52:42;;;;;;;7.38;1.38;;;4.50;99.90;;;;;;4972729;28;20058;-72
2022/04/10 06:55:08;;;;;;;6.10;1.88;;;4.40;99.90;;;;;;4972907;28;20047;-72
2022/04/10 06:57:34;;;;;;;6.15;1.23;;;4.30;99.90;;;;;;4974089;28;20055;-71
2022/04/10 07:00:00;;;;;;;4.38;1.45;;;4.20;99.90;;;;;;4973918;28;20361;-71
2022/04/10 07:02:25;;;;;;;8.10;1.70;;;4.20;99.90;;;;;;4959335;28;20057;-71
2022/04/10 07:04:51;;;;;;;8.73;2.22;;;4.20;99.90;;;;;;4965007;28;20042;-71
2022/04/10 07:07:17;;;;;;;7.18;1.27;;;4.70;99.90;;;;;;4957570;28;20619;-72
2022/04/10 07:09:42;;;;;;;3.60;1.10;;;4.50;99.90;;;;;;4973630;28;20065;-71
2022/04/10 07:12:08;;;;;;;5.32;1.48;;;4.60;99.90;;;;;;4957324;28;20047;-70
2022/04/10 07:14:34;;;;;;;7.75;1.58;;;4.70;99.90;;;;;;4972903;28;20045;-72
2022/04/10 07:17:00;;;;;;;7.63;1.58;;;5.20;99.90;;;;;;4957518;28;20058;-71
2022/04/10 07:19:26;;;;;;;11.15;1.45;;;5.60;99.90;;;;;;4939347;28;20377;-72
2022/04/10 07:24:35;;;;;;;6.65;1.55;;;5.10;99.90;;;;;;4966582;28;20054;-71
2022/04/10 07:27:01;;;;;;;9.48;2.10;;;5.10;99.90;;;;;;4973509;28;20055;-73
2022/04/10 07:29:27;;;;;;;5.13;1.70;;;5.30;99.90;;;;;;4972126;28;20054;-73
2022/04/10 07:31:52;;;;;;;7.80;1.52;;;5.40;99.90;;;;;;4956528;28;20133;-73
2022/04/10 07:34:18;;;;;;;4.65;1.27;;;5.60;99.90;;;;;;4971633;28;20046;-73
2022/04/10 07:36:44;;;;;;;6.53;1.80;;;5.70;99.90;;;;;;4940010;28;20039;-72
2022/04/10 07:39:10;;;;;;;6.20;1.52;;;6.20;99.90;;;;;;4971886;28;20498;-72
2022/04/10 07:41:35;;;;;;;7.85;1.83;;;6.10;99.90;;;;;;4971773;28;20050;-72
2022/04/10 07:44:01;;;;;;;7.50;2.30;;;6.30;99.90;;;;;;4969528;28;20053;-72
2022/04/10 07:49:11;;;;;;;11.80;2.03;;;6.30;99.90;;;;;;4959076;28;20047;-72
2022/04/10 07:51:37;;;;;;;7.00;1.90;;;6.10;99.90;;;;;;4955724;28;20381;-72
2022/04/10 07:54:03;;;;;;;10.60;1.90;;;6.40;99.90;;;;;;4954652;28;20054;-76
2022/04/10 07:56:29;;;;;;;6.50;1.55;;;5.80;99.90;;;;;;4972592;28;20051;-71
2022/04/10 07:58:54;;;;;;;8.10;1.58;;;5.70;99.90;;;;;;4973043;28;20555;-73
2022/04/10 08:01:20;;;;;;;7.30;1.50;;;5.80;99.90;;;;;;4941016;28;20480;-74
2022/04/10 08:03:51;;;;;;;7.65;1.50;;;6.50;99.90;;;;;;4971998;28;20078;-72
2022/04/10 08:06:18;;;;;;;8.75;1.75;;;6.70;99.90;;;;;;4972904;28;20113;-72
2022/04/10 08:08:43;;;;;;;5.60;1.50;;;6.40;99.90;;;;;;4983826;28;20074;-72
2022/04/10 08:11:09;;;;;;;9.10;1.80;;;7.00;99.90;;;;;;4973397;28;20074;-73
2022/04/10 08:13:35;;;;;;;9.20;1.60;;;6.70;99.90;;;;;;4987687;28;20130;-72
2022/04/10 08:16:01;;;;;;;10.98;2.15;;;6.60;99.90;;;;;;4969900;28;20047;-72
2022/04/10 08:18:27;;;;;;;6.82;1.58;;;6.60;99.90;;;;;;4957625;28;20129;-72
2022/04/10 08:20:53;;;;;;;6.18;1.83;;;6.80;99.90;;;;;;4972516;28;20141;-72
2022/04/10 08:23:19;;;;;;;7.63;2.13;;;7.00;99.90;;;;;;4973276;28;20129;-72
2022/04/10 08:25:44;;;;;;;8.55;1.75;;;7.20;99.90;;;;;;4971454;28;20050;-72
2022/04/10 08:28:10;;;;;;;7.00;1.92;;;7.40;99.90;;;;;;4972241;28;20554;-72
2022/04/10 08:30:36;;;;;;;9.27;2.17;;;7.60;99.90;;;;;;4971913;28;20096;-72
2022/04/10 08:33:02;;;;;;;8.50;1.55;;;7.50;99.90;;;;;;4970817;28;20082;-72
2022/04/10 08:35:27;;;;;;;5.63;1.58;;;7.70;99.90;;;;;;4970655;28;20082;-73
2022/04/10 08:37:53;;;;;;;6.97;1.73;;;7.50;99.90;;;;;;4970177;28;20351;-72
2022/04/10 08:40:19;;;;;;;7.88;1.95;;;7.50;99.90;;;;;;4970958;28;20043;-73
2022/04/10 08:42:45;;;;;;;6.43;1.15;;;7.50;99.90;;;;;;4970808;28;20057;-76
2022/04/10 08:45:11;;;;;;;8.15;1.42;;;7.70;99.90;;;;;;4970729;28;20523;-73
2022/04/10 08:47:40;;;;;;;9.40;1.55;;;7.70;99.90;;;;;;4970481;28;20085;-74
2022/04/10 08:50:07;;;;;;;9.90;1.33;;;7.80;99.90;;;;;;4955070;28;20085;-79
2022/04/10 08:52:34;;;;;;;7.95;1.30;;;8.10;99.90;;;;;;4970724;28;20161;-72
2022/04/10 08:55:00;;;;;;;7.57;1.52;;;8.60;99.90;;;;;;4955409;28;20047;-73
2022/04/10 08:57:25;;;;;;;7.38;1.60;;;8.50;99.90;;;;;;4971826;28;20053;-75
2022/04/10 08:59:57;;;;;;;7.03;1.52;;;8.40;99.90;;;;;;4972431;28;20527;-73
2022/04/10 09:02:22;;;;;;;8.43;1.50;;;8.40;99.90;;;;;;4971166;28;20055;-72
2022/04/10 09:04:48;;;;;;;10.93;1.67;;;8.70;99.90;;;;;;4968948;28;20066;-71
2022/04/10 09:07:14;;;;;;;9.20;1.55;;;9.00;99.90;;;;;;4970827;28;20154;-72
2022/04/10 09:09:53;;;;;;;5.28;1.20;;;9.20;99.90;;;;;;4970713;28;20046;-72
2022/04/10 09:12:19;;;;;;;7.47;2.25;;;9.30;99.90;;;;;;4954371;28;20049;-71
2022/04/10 09:14:45;;;;;;;5.85;1.13;;;9.20;99.90;;;;;;4970087;28;20414;-72
2022/04/10 09:17:15;;;;;;;9.65;1.38;;;8.80;99.90;;;;;;4970816;28;20531;-72
2022/04/10 09:19:43;;;;;;;8.88;1.40;;;8.60;99.90;;;;;;4970543;28;20042;-72
2022/04/10 09:22:35;;;;;;;7.90;1.38;;;8.70;99.90;;;;;;4968711;28;20055;-72
2022/04/10 09:25:14;;;;;;;;;;;8.60;99.90;;;;;;4970871;28;20051;-71
2022/04/10 09:27:50;;;;;;;6.05;1.23;;;8.70;99.90;;;;;;4970249;28;19951;-71
2022/04/10 09:30:18;;;;;;;9.63;1.42;;;8.60;99.90;;;;;;4938405;28;20051;-72
2022/04/10 09:32:53;;;;;;;6.93;1.42;;;8.70;99.90;;;;;;4970810;28;20395;-71
2022/04/10 09:35:22;;;;;;;7.00;1.20;;;8.80;99.90;;;;;;4952534;28;20511;-71
2022/04/10 09:37:52;;;;;;;7.18;1.23;;;8.70;99.90;;;;;;4970163;28;20057;-71
2022/04/10 09:40:33;;;;;;;7.03;1.13;;;8.80;99.90;;;;;;4970290;28;20101;-72
2022/04/10 09:43:07;;;;;;;3.97;0.83;;;9.10;99.90;;;;;;4954371;28;20043;-71
2022/04/10 09:45:36;;;;;;;4.50;1.15;;;9.20;99.90;;;;;;4969347;28;20049;-72
2022/04/10 09:48:23;;;;;;;7.10;1.13;;;9.30;99.90;;;;;;4970735;28;20046;-71
2022/04/10 09:50:52;;;;;;;3.88;0.93;;;9.40;99.90;;;;;;4948824;28;20054;-72
2022/04/10 09:53:18;;;;;;;8.40;1.10;;;9.50;99.90;;;;;;4958049;28;20055;-72
2022/04/10 09:55:51;;;;;;;5.47;0.93;;;9.60;99.90;;;;;;4959005;28;20055;-71
2022/04/10 09:58:19;;;;;;;6.32;1.33;;;9.60;99.90;;;;;;4974322;28;20121;-71
2022/04/10 10:00:46;;;;;;;5.20;1.13;;;9.70;99.90;;;;;;4974066;28;20078;-71
2022/04/10 10:03:13;;;;;;;5.65;1.00;;;9.80;99.90;;;;;;4941719;28;20046;-73
2022/04/10 10:05:39;;;;;;;5.57;1.20;;;9.80;99.90;;;;;;4973924;28;20046;-72
2022/04/10 10:08:06;;;;;;;4.35;1.25;;;9.50;99.90;;;;;;4973464;28;20038;-72
2022/04/10 10:10:34;;;;;;;3.70;1.10;;;9.80;99.90;;;;;;4973781;28;20472;-71
2022/04/10 10:13:02;;;;;;;6.20;1.30;;;10.00;99.90;;;;;;4974955;28;20090;-72
2022/04/10 10:15:27;;;;;;;7.28;1.35;;;10.20;99.90;;;;;;4973559;28;20122;-71
2022/04/10 10:17:54;;;;;;;5.57;1.40;;;10.00;99.90;;;;;;4973662;28;20137;-71
2022/04/10 10:20:21;;;;;;;7.90;1.42;;;9.80;99.90;;;;;;4973545;28;20089;-71
2022/04/10 10:22:47;;;;;;;8.98;1.48;;;9.40;99.90;;;;;;4973298;28;20042;-71
2022/04/10 10:25:27;;;;;;;5.20;1.13;;;9.50;99.90;;;;;;4956991;28;20046;-71
2022/04/10 10:28:14;;;;;;;6.25;0.90;;;9.50;99.90;;;;;;4972988;28;20047;-71
2022/04/10 10:31:19;;;;;;;3.80;0.70;;;9.80;99.90;;;;;;4957470;28;20042;-71
2022/04/10 10:33:57;;;;;;;4.70;0.90;;;10.00;99.90;;;;;;4959018;28;20098;-72
2022/04/10 10:36:26;;;;;;;4.55;0.82;;;10.10;99.90;;;;;;4973235;28;20399;-71
2022/04/10 10:38:56;;;;;;;3.78;0.90;;;10.20;99.90;;;;;;4957516;28;20042;-71
2022/04/10 10:41:22;;;;;;;4.40;0.80;;;10.20;99.90;;;;;;4988061;28;20112;-71
2022/04/10 10:43:48;;;;;;;4.05;0.80;;;9.90;99.90;;;;;;4972671;28;20465;-71
2022/04/10 10:46:32;;;;;;;4.13;0.80;;;9.80;99.90;;;;;;4972843;28;20064;-72
2022/04/10 10:49:18;;;;;;;5.93;0.95;;;9.80;99.90;;;;;;4971717;28;20050;-75
2022/04/10 10:51:47;;;;;;;3.85;0.77;;;9.80;99.90;;;;;;4973374;28;20055;-75
2022/04/10 10:54:34;;;;;;;4.20;0.80;;;9.90;99.90;;;;;;4973414;28;20051;-74
2022/04/10 10:57:43;;;;;;;4.35;0.95;;;9.70;99.90;;;;;;4972777;28;20047;-75
2022/04/10 11:00:22;;;;;;;6.43;0.90;;;9.80;99.90;;;;;;4900595;29;20051;-76
2022/04/10 11:02:53;;;;;;;4.95;1.00;;;10.20;99.90;;;;;;4915329;29;20497;-76
2022/04/10 11:05:24;;;;;;;5.15;1.23;;;10.40;99.90;;;;;;4950310;28;20574;-75
2022/04/10 11:08:18;;;;;;;2.70;0.85;;;10.60;99.90;;;;;;4973649;28;20047;-75
2022/04/10 11:11:18;;;;;;;6.82;1.17;;;10.90;92.70;;;;;;4971403;28;20059;-75
2022/04/10 11:13:46;;;;;;;6.82;0.90;;;11.10;98.80;;;;;;4982428;28;20051;-76
2022/04/10 11:16:15;;;;;;;7.47;1.27;;;10.90;99.90;;;;;;4978266;28;20150;-75
2022/04/10 11:18:49;;;;;;;7.75;1.25;;;10.60;98.10;;;;;;4956906;28;20435;-75
2022/04/10 11:21:18;;;;;;;4.40;0.90;;;10.90;99.90;;;;;;4972858;28;20306;-76
2022/04/10 11:23:45;;;;;;;2.35;0.75;;;10.70;99.90;;;;;;4978385;28;20046;-75
2022/04/10 11:26:15;;;;;;;3.10;1.10;;;10.60;96.20;;;;;;4973529;28;20113;-75
2022/04/10 11:29:08;;;;;;;7.43;1.20;;;10.50;99.90;;;;;;4972969;28;20050;-76
2022/04/10 11:31:37;;;;;;;6.18;0.90;;;10.80;99.90;;;;;;4970922;28;20462;-75
2022/04/10 11:34:13;;;;;;;6.72;1.17;;;10.70;99.90;;;;;;4955038;28;20038;-75
2022/04/10 11:36:48;;;;;;;5.15;0.90;;;10.40;94.40;;;;;;4971471;28;20047;-75
2022/04/10 11:39:15;;;;;;;6.25;1.05;;;10.40;96.60;;;;;;4970853;28;20047;-75
2022/04/10 11:41:42;;;;;;;7.00;1.08;;;10.70;99.90;;;;;;4955989;28;20047;-74
2022/04/10 11:44:09;;;;;;;5.18;1.00;;;10.60;94.50;;;;;;4955284;28;20046;-74
2022/04/10 11:46:35;;;;;;;4.22;1.00;;;10.60;95.50;;;;;;4971099;28;20125;-74
2022/04/10 11:49:02;;;;;;;5.57;0.90;;;10.90;99.90;;;;;;4971779;28;20047;-74
2022/04/10 11:51:28;;;;;;;5.22;1.02;;;11.00;97.10;;;;;;4972741;28;20046;-75
2022/04/10 11:54:00;;;;;;;6.65;1.10;;;11.30;99.90;;;;;;4971634;28;20066;-74
2022/04/10 11:56:26;;;;;;;4.20;0.93;;;11.50;91.80;;;;;;4972697;28;20059;-75
2022/04/10 11:58:51;;;;;;;5.68;1.48;;;11.90;90.40;;;;;;4971946;28;20448;-75
2022/04/10 12:01:21;;;;;;;5.72;1.20;;;12.10;89.70;;;;;;4972125;28;20050;-75
2022/04/10 12:03:50;;;;;;;5.55;0.90;;;12.50;90.00;;;;;;4956097;28;20059;-75
2022/04/10 12:06:20;;;;;;;4.03;0.95;;;12.10;84.40;;;;;;4941301;28;20054;-75
2022/04/10 12:08:48;;;;;;;3.95;1.20;;;12.20;85.40;;;;;;4972002;28;20054;-74
2022/04/10 12:11:17;;;;;;;7.88;1.08;;;12.10;86.30;;;;;;4972422;28;20501;-74
2022/04/10 12:13:42;;;;;;;4.35;1.30;;;12.20;86.60;;;;;;4970581;28;20495;-74
2022/04/10 12:16:11;;;;;;;8.00;1.40;;;12.40;90.00;;;;;;4972193;28;20062;-74
2022/04/10 12:18:51;;;;;;;5.93;1.30;;;12.50;89.80;;;;;;4972444;28;20042;-75
2022/04/10 12:21:17;;;;;;;6.32;1.27;;;12.40;80.40;;;;;;4972546;28;20093;-72
2022/04/10 12:23:43;;;;;;;7.20;1.10;;;12.50;92.10;;;;;;4970743;28;20051;-72
2022/04/10 12:26:09;;;;;;;5.43;1.10;;;12.30;90.90;;;;;;4970910;28;20046;-71
2022/04/10 12:28:38;;;;;;;3.78;1.02;;;12.00;84.00;;;;;;4971984;28;20054;-70
2022/04/10 12:31:04;;;;;;;5.18;1.00;;;11.60;85.00;;;;;;4955213;28;20105;-72
2022/04/10 12:33:31;;;;;;;5.07;0.95;;;11.40;89.10;;;;;;4970722;28;20045;-72
2022/04/10 12:35:56;;;;;;;3.47;1.15;;;11.20;84.30;;;;;;4970937;28;20039;-70
2022/04/10 12:38:28;;;;;;;4.90;1.20;;;11.70;91.20;;;;;;4954948;28;20059;-72
2022/04/10 12:41:04;;;;;;;6.07;1.75;;;12.50;89.80;;;;;;4969745;28;20093;-71
2022/04/10 12:43:30;;;;;;;6.10;1.00;;;13.10;87.70;;;;;;4953834;28;20035;-72
2022/04/10 12:46:08;;;;;;;6.50;1.40;;;13.30;92.90;;;;;;4954977;28;20113;-70
2022/04/10 12:48:34;;;;;;;2.00;0.85;;;12.80;78.00;;;;;;4970163;28;20443;-68
2022/04/10 12:51:07;;;;;;;3.38;1.23;;;12.80;85.60;;;;;;4970261;28;20062;-68
2022/04/10 12:53:33;;;;;;;4.70;1.42;;;13.40;83.60;;;;;;4953667;28;20452;-69
2022/04/10 12:56:00;;;;;;;3.80;0.90;;;13.90;82.80;;;;;;4970839;28;20475;-73
2022/04/10 12:58:29;;;;;;;4.07;0.95;;;14.40;84.00;;;;;;4972060;28;20154;-72
2022/04/10 13:00:56;;;;;;;3.90;0.80;;;14.40;77.70;;;;;;4971057;28;20042;-72